PWSweather.com
Personal Weather Stations
Station Observations
ABQWX
Albuquerque, NM 87110

Albuquerque, NM 87110

Lat: 35.1305, Lon: -106.58571

Elevation: 5210

Station Type: LaCrosse

http://www.albuquerqueweather.info/

High Low Average
Temperature 54.6°F12.6°F 24.7°F-4.1°F 38.8°F3.8°F
Dew Point 30.1°F-1.1°F 16.6°F-8.6°F 23.5°F-4.7°F
Winds 3.0 mph WSW4.8 mph WSW Calm Calm 1.5 mph 2.4 mph
Wind Gusts 6.0 mph9.7 mph -- 2.9 mph4.7 mph
Humidity 74% 37% 56%
Pressure 30.35 in1027.80 in 30.26 in1024.70 in -
Precipitation 0.00 in0.00 in - -
Hour Temp Dew Point Humidity Winds Wind Gusts Pressure Precip Precip Rate Daily Precip Total
12:00 AM 33.2°F0.7°C 19.6°F-6.9°C 57% 0.3 mph ESE0.5 kmh ESE 1.1 mph1.8 kmh 30.28 in1025.4 mb 0.00 in0.0 mm 0.00 in/hr0.0 mm/hr 0.00 in0.0 mm
01:00 AM 30.6°F-0.8°C 18.8°F-7.3°C 61% 1.4 mph E2.3 kmh E 2.2 mph3.5 kmh 30.29 in1025.7 mb 0.00 in0.0 mm 0.00 in/hr0.0 mm/hr 0.00 in0.0 mm
02:00 AM 29.4°F-1.4°C 18.3°F-7.6°C 63% 0.4 mph ESE0.6 kmh ESE 1.3 mph2.1 kmh 30.28 in1025.4 mb 0.00 in0.0 mm 0.00 in/hr0.0 mm/hr 0.00 in0.0 mm
03:00 AM 28.5°F-1.9°C 18.6°F-7.4°C 66% 2.1 mph E3.4 kmh E 4.3 mph6.9 kmh 30.29 in1025.7 mb 0.00 in0.0 mm 0.00 in/hr0.0 mm/hr 0.00 in0.0 mm
04:00 AM 27.4°F-2.6°C 17.9°F-7.8°C 67% 0.6 mph ENE1.0 kmh ENE 1.6 mph2.6 kmh 30.28 in1025.4 mb 0.00 in0.0 mm 0.00 in/hr0.0 mm/hr 0.00 in0.0 mm
05:00 AM 26.3°F-3.2°C 17.2°F-8.2°C 68% 0.9 mph E1.4 kmh E 1.6 mph2.6 kmh 30.29 in1025.7 mb 0.00 in0.0 mm 0.00 in/hr0.0 mm/hr 0.00 in0.0 mm
06:00 AM 25.6°F-3.6°C 17.2°F-8.2°C 70% 0.5 mph E0.8 kmh E 2.0 mph3.2 kmh 30.30 in1026.1 mb 0.00 in0.0 mm 0.00 in/hr0.0 mm/hr 0.00 in0.0 mm
07:00 AM 24.7°F-4.1°C 16.6°F-8.6°C 71% 0.5 mph ESE0.8 kmh ESE 1.6 mph2.6 kmh 30.32 in1026.8 mb 0.00 in0.0 mm 0.00 in/hr0.0 mm/hr 0.00 in0.0 mm
08:00 AM 25.6°F-3.6°C 17.8°F-7.9°C 72% 0.1 mph ENE0.2 kmh ENE 0.4 mph0.6 kmh 30.32 in1026.8 mb 0.00 in0.0 mm 0.00 in/hr0.0 mm/hr 0.00 in0.0 mm
09:00 AM 28.8°F-1.8°C 21.6°F-5.8°C 74% 2.9 mph NW4.7 kmh NW 4.0 mph6.4 kmh 30.34 in1027.4 mb 0.00 in0.0 mm 0.00 in/hr0.0 mm/hr 0.00 in0.0 mm
10:00 AM 35.5°F1.9°C 25.6°F-3.6°C 67% 1.7 mph W2.7 kmh W 3.4 mph5.5 kmh 30.35 in1027.8 mb 0.00 in0.0 mm 0.00 in/hr0.0 mm/hr 0.00 in0.0 mm
11:00 AM 41.6°F5.3°C 27.1°F-2.7°C 56% 1.4 mph W2.3 kmh W 3.1 mph5.0 kmh 30.34 in1027.4 mb 0.00 in0.0 mm 0.00 in/hr0.0 mm/hr 0.00 in0.0 mm
12:00 PM 45.9°F7.7°C 25.8°F-3.4°C 45% 2.7 mph NW4.3 kmh NW 5.6 mph9.0 kmh 30.32 in1026.8 mb 0.00 in0.0 mm 0.00 in/hr0.0 mm/hr 0.00 in0.0 mm
01:00 PM 50.3°F10.2°C 28.6°F-1.9°C 43% 2.9 mph WSW4.7 kmh WSW 4.7 mph7.6 kmh 30.30 in1026.1 mb 0.00 in0.0 mm 0.00 in/hr0.0 mm/hr 0.00 in0.0 mm
02:00 PM 53.9°F12.2°C 30.1°F-1.1°C 40% 3.0 mph WSW4.8 kmh WSW 5.6 mph9.0 kmh 30.27 in1025.1 mb 0.00 in0.0 mm 0.00 in/hr0.0 mm/hr 0.00 in0.0 mm
03:00 PM 54.6°F12.6°C 28.8°F-1.8°C 37% 2.6 mph NW4.2 kmh NW 6.0 mph9.7 kmh 30.27 in1025.1 mb 0.00 in0.0 mm 0.00 in/hr0.0 mm/hr 0.00 in0.0 mm
04:00 PM 54.6°F12.6°C 29.5°F-1.4°C 38% 1.5 mph NE2.4 kmh NE 2.5 mph4.0 kmh 30.26 in1024.7 mb 0.00 in0.0 mm 0.00 in/hr0.0 mm/hr 0.00 in0.0 mm
05:00 PM 53.5°F11.9°C 29.1°F-1.6°C 39% 2.5 mph W4.0 kmh W 4.0 mph6.4 kmh 30.26 in1024.7 mb 0.00 in0.0 mm 0.00 in/hr0.0 mm/hr 0.00 in0.0 mm
06:00 PM 50.4°F10.2°C 28.8°F-1.8°C 43% 2.5 mph N4.0 kmh N 4.7 mph7.6 kmh 30.28 in1025.4 mb 0.00 in0.0 mm 0.00 in/hr0.0 mm/hr 0.00 in0.0 mm
07:00 PM 47.4°F8.6°C 28.1°F-2.2°C 47% 2.6 mph N4.2 kmh N 4.0 mph6.4 kmh 30.30 in1026.1 mb 0.00 in0.0 mm 0.00 in/hr0.0 mm/hr 0.00 in0.0 mm
08:00 PM 44.1°F6.7°C 26.2°F-3.2°C 49% 0.8 mph NNE1.3 kmh NNE 2.5 mph4.0 kmh 30.30 in1026.1 mb 0.00 in0.0 mm 0.00 in/hr0.0 mm/hr 0.00 in0.0 mm
09:00 PM 42.0°F5.6°C 24.7°F-4.1°C 50% Calm Calm -- 30.31 in1026.4 mb 0.00 in0.0 mm 0.00 in/hr0.0 mm/hr 0.00 in0.0 mm
10:00 PM 38.6°F3.7°C 24.2°F-4.3°C 56% 0.7 mph N1.1 kmh N 1.8 mph2.9 kmh 30.34 in1027.4 mb 0.00 in0.0 mm 0.00 in/hr0.0 mm/hr 0.00 in0.0 mm
11:00 PM 37.7°F3.2°C 23.8°F-4.6°C 57% 1.4 mph SSE2.3 kmh SSE 2.7 mph4.3 kmh 30.35 in1027.8 mb 0.00 in0.0 mm 0.00 in/hr0.0 mm/hr 0.00 in0.0 mm